createdAt,value
2022-09-21T00:00:03.405Z,98.78
2022-09-21T00:04:06.256Z,98.79
2022-09-21T00:06:07.881Z,98.78
2022-09-21T00:08:09.124Z,98.69
2022-09-21T00:10:10.358Z,98.66
2022-09-21T00:12:12.110Z,98.62
2022-09-21T00:14:13.166Z,98.65
2022-09-21T00:16:14.395Z,98.71
2022-09-21T00:19:26.441Z,98.78
2022-09-21T00:21:27.872Z,98.85
2022-09-21T00:23:29.600Z,98.87
2022-09-21T00:25:31.332Z,98.88
2022-09-21T00:27:32.962Z,98.9
2022-09-21T00:29:34.668Z,98.89
2022-09-21T00:31:36.395Z,98.91
2022-09-21T00:33:38.150Z,98.92
2022-09-21T00:35:39.606Z,98.91
2022-09-21T00:37:40.558Z,98.88
2022-09-21T00:39:42.213Z,98.87
2022-09-21T00:41:43.434Z,98.92
2022-09-21T00:43:44.738Z,98.92
2022-09-21T00:45:45.818Z,98.87
2022-09-21T00:47:47.317Z,98.89
2022-09-21T00:49:49.204Z,98.89
2022-09-21T00:53:52.508Z,98.9
2022-09-21T00:57:55.208Z,98.91
2022-09-21T00:59:56.284Z,98.93
2022-09-21T01:01:57.868Z,98.92
2022-09-21T01:03:58.918Z,98.92
2022-09-21T01:08:01.807Z,98.94
2022-09-21T01:10:03.724Z,98.95
2022-09-21T01:12:04.818Z,98.98
2022-09-21T01:14:07.921Z,98.98
2022-09-21T01:16:08.305Z,98.98
2022-09-21T01:18:09.530Z,98.99
2022-09-21T01:20:10.998Z,98.97
2022-09-21T01:22:12.706Z,98.95
2022-09-21T01:24:14.157Z,98.96
2022-09-21T01:26:15.542Z,98.97
2022-09-21T01:28:17.142Z,98.96
2022-09-21T01:30:18.418Z,98.96
2022-09-21T01:32:20.019Z,99
2022-09-21T01:34:21.927Z,98.99
2022-09-21T01:36:22.980Z,99
2022-09-21T01:38:24.730Z,98.97
2022-09-21T01:40:25.944Z,98.99
2022-09-21T01:42:27.100Z,98.97
2022-09-21T01:44:28.654Z,98.98
2022-09-21T01:46:29.749Z,99
2022-09-21T01:48:31.336Z,99.01
2022-09-21T01:50:32.974Z,99.06
2022-09-21T01:52:34.370Z,99.07
2022-09-21T01:54:35.634Z,99.1
2022-09-21T01:56:37.189Z,99.13
2022-09-21T01:58:38.939Z,99.16
2022-09-21T02:00:40.563Z,99.14
2022-09-21T02:02:42.030Z,99.12
2022-09-21T02:04:43.405Z,99.07
2022-09-21T02:06:44.545Z,99.06
2022-09-21T02:08:46.158Z,99.05
2022-09-21T02:10:48.070Z,99.07
2022-09-21T02:12:49.801Z,99.08
2022-09-21T02:14:50.996Z,99.08
2022-09-21T02:16:52.629Z,99.09
2022-09-21T02:18:54.188Z,99.12
2022-09-21T02:20:56.122Z,99.13
2022-09-21T02:22:57.198Z,99.12
2022-09-21T02:24:58.984Z,99.12
2022-09-21T02:27:00.843Z,99.15
2022-09-21T02:29:02.096Z,99.15
2022-09-21T02:33:05.914Z,99.15
2022-09-21T02:35:07.744Z,99.14
2022-09-21T02:37:08.839Z,99.12
2022-09-21T02:39:09.862Z,99.14
2022-09-21T02:41:11.554Z,99.15
2022-09-21T02:43:12.871Z,99.2
2022-09-21T02:45:14.263Z,99.18
2022-09-21T02:47:15.680Z,99.21
2022-09-21T02:49:17.513Z,99.19
2022-09-21T02:51:19.011Z,99.21
2022-09-21T02:53:20.183Z,99.21
2022-09-21T02:55:21.929Z,99.24
2022-09-21T02:57:23.225Z,99.24
2022-09-21T02:59:24.748Z,99.19
2022-09-21T03:01:25.972Z,99.18
2022-09-21T03:05:29.000Z,99.17
2022-09-21T03:07:30.511Z,99.16
2022-09-21T03:09:31.883Z,99.18
2022-09-21T03:11:33.721Z,99.17
2022-09-21T03:15:36.982Z,99.21
2022-09-21T03:17:38.433Z,99.22
2022-09-21T03:19:39.638Z,99.21
2022-09-21T03:21:44.570Z,99.2
2022-09-21T03:23:43.054Z,99.2
2022-09-21T03:25:44.544Z,99.22
2022-09-21T03:27:46.478Z,99.23
2022-09-21T03:29:48.615Z,99.22
2022-09-21T03:31:50.072Z,99.25
2022-09-21T03:33:51.226Z,99.24
2022-09-21T03:35:53.174Z,99.26
2022-09-21T03:37:54.438Z,99.24
2022-09-21T03:39:56.649Z,99.28
2022-09-21T03:41:57.723Z,99.26
2022-09-21T03:43:58.951Z,99.28
2022-09-21T03:46:00.255Z,99.28
2022-09-21T03:48:02.173Z,99.28
2022-09-21T03:50:05.591Z,99.28
2022-09-21T03:52:05.286Z,99.29
2022-09-21T03:54:07.159Z,99.27
2022-09-21T03:58:09.144Z,99.26
2022-09-21T04:00:10.938Z,99.26
2022-09-21T04:02:12.354Z,99.26
2022-09-21T04:04:14.279Z,99.25
2022-09-21T04:06:15.322Z,99.27
2022-09-21T04:08:16.684Z,99.25
2022-09-21T04:10:17.986Z,99.26
2022-09-21T04:12:19.248Z,99.26
2022-09-21T04:14:20.606Z,99.26
2022-09-21T04:16:22.406Z,99.26
2022-09-21T04:18:23.872Z,99.28
2022-09-21T04:20:25.397Z,99.28
2022-09-21T04:22:27.133Z,99.3
2022-09-21T04:24:28.887Z,99.28
2022-09-21T04:26:30.402Z,99.3
2022-09-21T04:28:32.092Z,99.3
2022-09-21T04:30:37.463Z,99.28
2022-09-21T04:32:34.789Z,99.24
2022-09-21T04:34:36.608Z,99.24
2022-09-21T04:36:37.726Z,99.22
2022-09-21T04:38:39.183Z,99.26
2022-09-21T04:40:40.344Z,99.24
2022-09-21T04:42:42.191Z,99.26
2022-09-21T04:44:43.662Z,99.25
2022-09-21T04:46:45.330Z,99.25
2022-09-21T04:48:46.883Z,99.29
2022-09-21T04:50:48.898Z,99.27
2022-09-21T04:52:50.168Z,99.27
2022-09-21T04:56:53.573Z,99.27
2022-09-21T04:58:54.998Z,99.3
2022-09-21T05:00:56.935Z,99.3
2022-09-21T05:02:58.473Z,99.3
2022-09-21T05:04:59.401Z,99.31
2022-09-21T05:07:00.882Z,99.3
2022-09-21T05:09:02.562Z,99.31
2022-09-21T05:11:03.739Z,99.29
2022-09-21T05:13:05.169Z,99.29
2022-09-21T05:15:06.968Z,99.29
2022-09-21T05:17:08.184Z,99.34
2022-09-21T05:19:09.566Z,99.32
2022-09-21T05:21:10.565Z,99.32
2022-09-21T05:23:16.193Z,99.33
2022-09-21T05:25:14.087Z,99.36
2022-09-21T05:27:15.165Z,99.35
2022-09-21T05:29:16.927Z,99.33
2022-09-21T05:31:18.744Z,99.33
2022-09-21T05:33:19.669Z,99.34
2022-09-21T05:35:20.851Z,99.32
2022-09-21T05:39:23.384Z,99.33
2022-09-21T05:41:24.441Z,99.36
2022-09-21T05:43:26.313Z,99.37
2022-09-21T05:45:27.974Z,99.38
2022-09-21T05:47:29.409Z,99.37
2022-09-21T05:49:31.226Z,99.39
2022-09-21T05:51:33.183Z,99.39
2022-09-21T05:53:34.528Z,99.38
2022-09-21T05:55:36.032Z,99.36
2022-09-21T05:57:37.867Z,99.39
2022-09-21T05:59:39.726Z,99.41
2022-09-21T06:01:41.533Z,99.41
2022-09-21T06:03:42.904Z,99.41
2022-09-21T06:05:44.795Z,99.4
2022-09-21T06:07:46.232Z,99.41
2022-09-21T06:11:49.868Z,99.42
2022-09-21T06:13:51.652Z,99.43
2022-09-21T06:15:53.458Z,99.44
2022-09-21T06:17:54.802Z,99.44
2022-09-21T06:19:56.444Z,99.49
2022-09-21T06:21:57.945Z,99.45
2022-09-21T06:23:59.613Z,99.43
2022-09-21T06:26:00.980Z,99.41
2022-09-21T06:28:02.578Z,99.43
2022-09-21T06:30:03.635Z,99.45
2022-09-21T06:32:05.356Z,99.43
2022-09-21T06:34:07.098Z,99.43
2022-09-21T06:36:08.412Z,99.46
2022-09-21T06:38:09.378Z,99.44
2022-09-21T06:40:10.830Z,99.44
2022-09-21T06:42:12.698Z,99.44
2022-09-21T06:44:14.148Z,99.42
2022-09-21T06:46:16.047Z,99.41
2022-09-21T06:48:17.359Z,99.44
2022-09-21T06:50:18.612Z,99.42
2022-09-21T06:54:21.677Z,99.43
2022-09-21T06:56:22.893Z,99.42
2022-09-21T06:58:24.486Z,99.38
2022-09-21T07:00:26.467Z,99.39
2022-09-21T07:02:28.066Z,99.37
2022-09-21T07:03:11.897Z,99.35
2022-09-21T07:05:12.990Z,99.33
2022-09-21T07:07:14.180Z,99.35
2022-09-21T07:11:17.527Z,99.31
2022-09-21T07:13:18.869Z,99.29
2022-09-21T07:15:19.994Z,99.33
2022-09-21T07:17:21.479Z,99.38
2022-09-21T07:19:23.287Z,99.35
2022-09-21T07:21:24.856Z,99.29
2022-09-21T07:23:26.725Z,99.34
2022-09-21T07:25:28.197Z,99.36
2022-09-21T07:27:29.769Z,99.4
2022-09-21T07:29:31.110Z,99.42
2022-09-21T07:31:32.424Z,99.41
2022-09-21T07:33:35.944Z,99.35
2022-09-21T07:35:35.429Z,99.27
2022-09-21T07:37:36.981Z,99.24
2022-09-21T07:39:38.689Z,99.25
2022-09-21T07:41:39.803Z,99.24
2022-09-21T07:43:41.400Z,99.27
2022-09-21T07:45:43.339Z,99.29
2022-09-21T07:47:44.536Z,99.24
2022-09-21T07:49:46.317Z,99.27
2022-09-21T07:51:47.641Z,99.26
2022-09-21T07:53:49.385Z,99.29
2022-09-21T07:55:50.830Z,99.28
2022-09-21T07:57:52.152Z,99.27
2022-09-21T07:59:53.530Z,99.24
2022-09-21T08:01:55.210Z,99.24
2022-09-21T08:03:56.856Z,99.15
2022-09-21T08:05:58.149Z,99.1
2022-09-21T08:07:59.794Z,99.15
2022-09-21T08:10:00.928Z,99.23
2022-09-21T08:12:02.366Z,99.22
2022-09-21T08:14:04.263Z,99.21
2022-09-21T08:16:05.583Z,99.22
2022-09-21T08:18:07.376Z,99.27
2022-09-21T08:20:08.526Z,99.25
2022-09-21T08:22:10.040Z,99.22
2022-09-21T08:24:11.422Z,99.29
2022-09-21T08:26:13.692Z,99.22
2022-09-21T08:28:14.759Z,99.24
2022-09-21T08:30:16.543Z,98.94
2022-09-21T08:32:33.277Z,99.04
2022-09-21T08:34:19.662Z,99.07
2022-09-21T08:36:21.415Z,99.05
2022-09-21T08:38:23.247Z,99.09
2022-09-21T08:40:24.619Z,99.02
2022-09-21T08:42:25.981Z,99.01
2022-09-21T08:44:28.370Z,98.55
2022-09-21T08:46:29.718Z,98.8
2022-09-21T08:48:35.947Z,98.6
2022-09-21T08:50:32.465Z,98.9
2022-09-21T08:52:34.388Z,98.8
2022-09-21T08:57:00.893Z,98.54
2022-09-21T08:58:39.428Z,98.52
2022-09-21T09:00:41.101Z,98.27
2022-09-21T09:02:41.909Z,98.39
2022-09-21T09:04:42.882Z,98.55
2022-09-21T09:06:44.254Z,98.38
2022-09-21T09:08:45.224Z,98.62
2022-09-21T09:10:46.181Z,97.78
2022-09-21T09:12:47.642Z,97.71
2022-09-21T09:14:49.189Z,97.63
2022-09-21T09:16:50.372Z,96.86
2022-09-21T09:18:51.706Z,96.42
2022-09-21T09:20:53.165Z,97.58
2022-09-21T09:22:54.791Z,94.25
2022-09-21T09:24:56.186Z,93.61
2022-09-21T09:26:57.910Z,94.34
2022-09-21T09:28:59.457Z,92.87
2022-09-21T09:31:00.805Z,92.14
2022-09-21T09:33:02.459Z,93.89
2022-09-21T09:35:04.035Z,88.06
2022-09-21T09:37:05.323Z,91.98
2022-09-21T09:39:06.145Z,90.31
2022-09-21T09:41:07.092Z,89.23
2022-09-21T09:45:09.707Z,84.86
2022-09-21T09:47:11.359Z,86.94
2022-09-21T09:49:13.419Z,85.09
2022-09-21T09:51:14.524Z,86.44
2022-09-21T09:55:17.039Z,85.1
2022-09-21T09:57:18.049Z,86.06
2022-09-21T09:59:19.160Z,86.86
2022-09-21T10:01:20.943Z,85.62
2022-09-21T10:03:22.368Z,86.15
2022-09-21T10:05:24.180Z,85.14
2022-09-21T10:07:25.260Z,83.6
2022-09-21T10:09:26.608Z,84.45
2022-09-21T10:11:28.220Z,83.55
2022-09-21T10:13:29.647Z,84.32
2022-09-21T10:15:31.346Z,83.27
2022-09-21T10:17:32.606Z,82.08
2022-09-21T10:19:33.527Z,82.98
2022-09-21T10:21:34.632Z,82.85
2022-09-21T10:23:35.802Z,79.7
2022-09-21T10:27:38.439Z,83.83
2022-09-21T10:29:39.950Z,83.33
2022-09-21T10:31:41.049Z,77.71
2022-09-21T10:33:42.423Z,79.31
2022-09-21T10:37:44.958Z,77.68
2022-09-21T10:39:46.234Z,77.31
2022-09-21T10:41:47.295Z,77.5
2022-09-21T10:43:48.409Z,79.02
2022-09-21T10:45:49.609Z,77.05
2022-09-21T10:47:50.925Z,74.63
2022-09-21T10:49:52.276Z,75.79
2022-09-21T10:51:53.167Z,77.58
2022-09-21T10:53:54.819Z,75.78
2022-09-21T10:56:11.672Z,75.24
2022-09-21T10:57:58.097Z,75.07
2022-09-21T10:59:59.402Z,75.48
2022-09-21T11:02:01.323Z,77.66
2022-09-21T11:04:02.561Z,78.65
2022-09-21T11:06:03.999Z,75.47
2022-09-21T11:10:07.896Z,69.98
2022-09-21T11:12:08.776Z,74.79
2022-09-21T11:14:09.999Z,71.1
2022-09-21T11:16:11.255Z,75.73
2022-09-21T11:20:13.396Z,73.71
2022-09-21T11:22:14.720Z,69.48
2022-09-21T11:24:16.276Z,71.94
2022-09-21T11:26:17.715Z,71.14
2022-09-21T11:28:19.463Z,70.87
2022-09-21T11:30:21.233Z,69.39
2022-09-21T11:32:22.431Z,72.76
2022-09-21T11:36:26.082Z,70.24
2022-09-21T11:38:29.910Z,68.36
2022-09-21T11:40:28.502Z,69.21
2022-09-21T11:42:29.632Z,70.56
2022-09-21T11:44:30.928Z,73.45
2022-09-21T11:48:33.456Z,65.85
2022-09-21T11:50:34.512Z,66.86
2022-09-21T11:52:35.588Z,68.45
2022-09-21T11:54:36.959Z,69.01
2022-09-21T11:56:38.443Z,67.76
2022-09-21T11:58:39.412Z,70.91
2022-09-21T12:00:40.765Z,67.65
2022-09-21T12:02:42.524Z,64.41
2022-09-21T12:04:43.955Z,70.74
2022-09-21T12:06:44.891Z,66.75
2022-09-21T12:08:45.935Z,67.7
2022-09-21T12:10:47.545Z,61.03
2022-09-21T12:12:48.801Z,67.49
2022-09-21T12:14:49.754Z,66.3
2022-09-21T12:18:53.076Z,64.87
2022-09-21T12:20:54.872Z,67.56
2022-09-21T12:22:56.153Z,67.25
2022-09-21T12:24:57.435Z,63.28
2022-09-21T12:26:58.918Z,64.2
2022-09-21T12:29:00.153Z,65.92
2022-09-21T12:31:01.166Z,62
2022-09-21T12:33:02.575Z,64.3
2022-09-21T12:35:03.521Z,65.88
2022-09-21T12:37:05.309Z,62.98
2022-09-21T12:39:07.000Z,64.27
2022-09-21T12:41:08.580Z,60.83
2022-09-21T12:43:10.439Z,62.85
2022-09-21T12:45:11.937Z,63.14
2022-09-21T12:47:13.074Z,61.91
2022-09-21T12:49:14.306Z,59.47
2022-09-21T12:51:15.252Z,64.46
2022-09-21T12:53:16.534Z,60.26
2022-09-21T12:57:38.519Z,61.28
2022-09-21T13:01:22.347Z,59.66
2022-09-21T13:03:23.818Z,60.22
2022-09-21T13:05:25.307Z,60.04
2022-09-21T13:07:26.360Z,59.87
2022-09-21T13:11:29.195Z,61.88
2022-09-21T13:13:30.726Z,59.08
2022-09-21T13:15:32.098Z,57.13
2022-09-21T13:17:33.746Z,59.06
2022-09-21T13:19:34.769Z,58.12
2022-09-21T13:21:35.624Z,58.68
2022-09-21T13:23:37.270Z,57.95
2022-09-21T13:25:38.466Z,58.48
2022-09-21T13:27:39.824Z,57.52
2022-09-21T13:31:43.364Z,62.38
2022-09-21T13:33:45.091Z,60.51
2022-09-21T13:35:46.217Z,59.93
2022-09-21T13:37:47.063Z,59.16
2022-09-21T13:39:48.505Z,57.2
2022-09-21T13:42:02.685Z,57.71
2022-09-21T13:43:51.298Z,59.93
2022-09-21T13:45:52.640Z,58.21
2022-09-21T13:48:37.685Z,55.72
2022-09-21T13:50:38.923Z,56.54
2022-09-21T13:52:39.861Z,55.98
2022-09-21T13:54:41.352Z,57.6
2022-09-21T13:56:42.949Z,55.83
2022-09-21T13:58:44.298Z,55.62
2022-09-21T14:00:45.480Z,55.7
2022-09-21T14:02:46.694Z,57.78
2022-09-21T14:06:49.476Z,56.64
2022-09-21T14:08:50.515Z,55.92
2022-09-21T14:10:51.563Z,54.36
2022-09-21T14:12:52.535Z,54.28
2022-09-21T14:14:54.350Z,53.78
2022-09-21T14:16:55.559Z,51.17
2022-09-21T14:18:56.839Z,49.85
2022-09-21T14:20:58.423Z,50.78
2022-09-21T14:22:59.475Z,50.61
2022-09-21T14:25:01.140Z,51.81
2022-09-21T14:27:03.454Z,54.3
2022-09-21T14:29:04.142Z,51.98
2022-09-21T14:31:05.822Z,49.81
2022-09-21T14:33:07.492Z,43.83
2022-09-21T14:37:10.342Z,51
2022-09-21T14:39:11.674Z,51.5
2022-09-21T14:41:16.488Z,49.76
2022-09-21T14:43:14.807Z,52.34
2022-09-21T14:45:15.861Z,50.35
2022-09-21T14:47:17.269Z,47.69
2022-09-21T14:49:18.574Z,46.24
2022-09-21T14:53:20.648Z,47.84
2022-09-21T14:55:21.920Z,49.15
2022-09-21T14:57:22.762Z,48.18
2022-09-21T14:59:23.680Z,49.36
2022-09-21T15:01:25.038Z,48.79
2022-09-21T15:03:26.666Z,50
2022-09-21T15:05:27.464Z,47.8
2022-09-21T15:07:29.264Z,48.16
2022-09-21T15:09:30.148Z,48.38
2022-09-21T15:11:31.654Z,51.22
2022-09-21T15:13:32.478Z,48.79
2022-09-21T15:15:34.256Z,52.08
2022-09-21T15:17:35.473Z,51.64
2022-09-21T15:19:36.614Z,48.64
2022-09-21T15:21:37.666Z,49.27
2022-09-21T15:23:39.204Z,49.34
2022-09-21T15:25:40.624Z,49.68
2022-09-21T15:27:42.146Z,48.46
2022-09-21T15:29:43.534Z,48.05
2022-09-21T15:31:45.037Z,48.39
2022-09-21T15:35:47.813Z,48.64
2022-09-21T15:37:49.086Z,49.83
2022-09-21T15:39:50.067Z,46.98
2022-09-21T15:41:51.543Z,48.81
2022-09-21T15:43:52.422Z,48.2
2022-09-21T15:45:53.337Z,47.99
2022-09-21T15:47:54.475Z,49.68
2022-09-21T15:49:55.305Z,48.74
2022-09-21T15:51:57.377Z,50.54
2022-09-21T15:53:58.341Z,50.6
2022-09-21T15:56:00.059Z,49.37
2022-09-21T15:58:01.868Z,48.91
2022-09-21T16:00:02.827Z,49.25
2022-09-21T16:02:04.223Z,47.99
2022-09-21T16:04:05.583Z,49.47
2022-09-21T16:06:06.928Z,48.17
2022-09-21T16:08:08.699Z,47.7
2022-09-21T16:10:10.111Z,47.46
2022-09-21T16:12:11.677Z,49.65
2022-09-21T16:14:12.697Z,47.11
2022-09-21T16:16:14.556Z,49.66
2022-09-21T16:18:15.917Z,49.64
2022-09-21T16:20:16.961Z,51.33
2022-09-21T16:22:18.540Z,50.04
2022-09-21T16:24:20.178Z,50.45
2022-09-21T16:26:21.639Z,49.64
2022-09-21T16:28:22.892Z,48.89
2022-09-21T16:30:24.607Z,49.1
2022-09-21T16:32:26.122Z,47.73
2022-09-21T16:34:27.114Z,48.04
2022-09-21T16:36:28.842Z,48.33
2022-09-21T16:38:30.065Z,50
2022-09-21T16:40:31.960Z,49.33
2022-09-21T16:42:33.511Z,49.04
2022-09-21T16:44:34.658Z,48.78
2022-09-21T16:46:36.152Z,48.11
2022-09-21T16:48:37.902Z,49.27
2022-09-21T16:50:39.542Z,50.46
2022-09-21T16:52:40.598Z,48.81
2022-09-21T16:54:42.187Z,49.68
2022-09-21T16:56:43.061Z,50.96
2022-09-21T17:00:45.637Z,51.54
2022-09-21T17:02:47.040Z,54.37
2022-09-21T17:04:48.001Z,55.2
2022-09-21T17:06:49.303Z,55.82
2022-09-21T17:08:50.263Z,58.37
2022-09-21T17:10:52.022Z,59.22
2022-09-21T17:12:53.314Z,61.11
2022-09-21T17:14:54.644Z,60.75
2022-09-21T17:16:56.305Z,62.12
2022-09-21T17:18:57.569Z,63.31
2022-09-21T17:20:59.013Z,64.28
2022-09-21T17:23:00.345Z,67.02
2022-09-21T17:25:02.267Z,67.66
2022-09-21T17:27:03.599Z,66.5
2022-09-21T17:29:04.613Z,66.62
2022-09-21T17:31:06.069Z,67.84
2022-09-21T17:33:07.578Z,69.18
2022-09-21T17:35:09.033Z,69.07
2022-09-21T17:37:10.569Z,69.02
2022-09-21T17:39:11.681Z,69.4
2022-09-21T17:41:13.137Z,69
2022-09-21T17:43:14.706Z,70.65
2022-09-21T17:45:15.818Z,70.98
2022-09-21T17:49:17.993Z,73.61
2022-09-21T17:51:19.817Z,75.22
2022-09-21T17:53:20.819Z,75.76
2022-09-21T17:55:21.888Z,76.24
2022-09-21T17:59:24.917Z,76.02
2022-09-21T18:01:26.212Z,74.34
2022-09-21T18:03:27.123Z,74
2022-09-21T18:05:28.836Z,73.98
2022-09-21T18:07:30.281Z,76.1
2022-09-21T18:09:32.145Z,76.35
2022-09-21T18:13:35.245Z,74.05
2022-09-21T18:15:36.368Z,73.2
2022-09-21T18:17:37.733Z,74.36
2022-09-21T18:19:39.032Z,75.78
2022-09-21T18:21:40.302Z,76.95
2022-09-21T18:23:41.563Z,77.64
2022-09-21T18:25:42.871Z,77.3
2022-09-21T18:27:44.634Z,77
2022-09-21T18:29:45.868Z,77.7
2022-09-21T18:31:47.231Z,77.57
2022-09-21T18:33:49.177Z,79.47
2022-09-21T18:35:51.011Z,80.59
2022-09-21T18:37:52.719Z,80.09
2022-09-21T18:41:55.544Z,80.82
2022-09-21T18:43:57.230Z,81.08
2022-09-21T18:45:59.165Z,82.82
2022-09-21T18:48:00.968Z,83.23
2022-09-21T18:50:02.394Z,83.21
2022-09-21T18:52:03.894Z,84.3
2022-09-21T18:54:05.047Z,84.44
2022-09-21T18:56:05.933Z,85.03
2022-09-21T18:58:07.164Z,85.67
2022-09-21T19:00:08.823Z,86.31
2022-09-21T19:02:10.359Z,86.97
2022-09-21T19:04:11.954Z,87.12
2022-09-21T19:06:13.369Z,86.77
2022-09-21T19:08:14.598Z,85.58
2022-09-21T19:10:16.433Z,85.33
2022-09-21T19:12:18.110Z,85.3
2022-09-21T19:14:19.925Z,84.84
2022-09-21T19:16:21.846Z,84.97
2022-09-21T19:18:23.016Z,84.93
2022-09-21T19:20:24.689Z,84.91
2022-09-21T19:24:26.886Z,85.31
2022-09-21T19:26:28.766Z,85.42
2022-09-21T19:28:30.452Z,85.87
2022-09-21T19:30:32.187Z,85.84
2022-09-21T19:32:33.880Z,85.78
2022-09-21T19:34:35.394Z,86.21
2022-09-21T19:36:36.422Z,86.72
2022-09-21T19:38:38.069Z,87.63
2022-09-21T19:40:39.679Z,88.06
2022-09-21T19:42:40.561Z,88.45
2022-09-21T19:44:42.361Z,88.53
2022-09-21T19:46:43.675Z,88.63
2022-09-21T19:48:45.505Z,88.45
2022-09-21T19:50:47.265Z,88.92
2022-09-21T19:52:48.470Z,89.05
2022-09-21T19:54:49.799Z,89.56
2022-09-21T19:56:54.791Z,90.66
2022-09-21T19:58:52.609Z,90.05
2022-09-21T20:02:55.698Z,89.27
2022-09-21T20:06:58.095Z,89.07
2022-09-21T20:08:59.622Z,89.57
2022-09-21T20:11:00.973Z,90.24
2022-09-21T20:13:02.541Z,90.35
2022-09-21T20:15:03.535Z,90.5
2022-09-21T20:17:05.429Z,91.14
2022-09-21T20:19:06.485Z,91.18
2022-09-21T20:21:07.473Z,91.04
2022-09-21T20:23:09.461Z,91.03
2022-09-21T20:25:10.545Z,91.58
2022-09-21T20:27:12.478Z,91.57
2022-09-21T20:29:13.898Z,92.13
2022-09-21T20:31:15.945Z,92.46
2022-09-21T20:34:27.057Z,92.89
2022-09-21T20:36:28.664Z,93.75
2022-09-21T20:38:30.262Z,93.74
2022-09-21T20:40:31.892Z,93.73
2022-09-21T20:42:32.993Z,93.7
2022-09-21T20:44:34.542Z,93.79
2022-09-21T20:46:36.282Z,93.67
2022-09-21T20:48:37.522Z,93.38
2022-09-21T20:52:40.787Z,93.25
2022-09-21T20:54:46.802Z,93.16
2022-09-21T20:56:44.093Z,93.02
2022-09-21T20:58:45.725Z,93
2022-09-21T21:00:46.754Z,93.5
2022-09-21T21:02:48.365Z,93.81
2022-09-21T21:04:50.074Z,94.18
2022-09-21T21:06:51.525Z,94.34
2022-09-21T21:10:54.712Z,94.41
2022-09-21T21:12:56.675Z,94.34
2022-09-21T21:14:57.764Z,94.27
2022-09-21T21:16:59.821Z,94.36
2022-09-21T21:19:00.828Z,94.54
2022-09-21T21:21:02.308Z,94.72
2022-09-21T21:23:07.861Z,94.8
2022-09-21T21:25:05.559Z,94.88
2022-09-21T21:27:07.266Z,94.88
2022-09-21T21:29:08.830Z,94.75
2022-09-21T21:31:10.242Z,94.83
2022-09-21T21:33:12.098Z,94.87
2022-09-21T21:35:13.901Z,94.82
2022-09-21T21:37:15.216Z,94.72
2022-09-21T21:39:16.870Z,94.76
2022-09-21T21:41:18.286Z,95.11
2022-09-21T21:43:19.881Z,95.2
2022-09-21T21:45:21.662Z,95.3
2022-09-21T21:47:39.609Z,95.48
2022-09-21T21:49:24.761Z,95.53
2022-09-21T21:53:27.760Z,95.38
2022-09-21T21:55:29.566Z,95.79
2022-09-21T21:57:30.689Z,95.82
2022-09-21T21:59:31.803Z,95.82
2022-09-21T22:01:33.814Z,95.66
2022-09-21T22:03:34.903Z,95.59
2022-09-21T22:05:36.769Z,95.94
2022-09-21T22:07:38.333Z,96.02
2022-09-21T22:09:39.374Z,96.08
2022-09-21T22:11:41.117Z,96.12
2022-09-21T22:13:42.976Z,96.3
2022-09-21T22:15:44.732Z,96.35
2022-09-21T22:17:46.348Z,96.36
2022-09-21T22:19:47.836Z,96.35
2022-09-21T22:21:53.933Z,96.38
2022-09-21T22:23:50.998Z,96.37
2022-09-21T22:25:52.103Z,96.28
2022-09-21T22:27:53.976Z,96.22
2022-09-21T22:29:55.405Z,96.34
2022-09-21T22:31:56.966Z,96.39
2022-09-21T22:36:00.592Z,96.75
2022-09-21T22:38:02.110Z,96.82
2022-09-21T22:40:04.151Z,96.91
2022-09-21T22:42:06.002Z,96.88
2022-09-21T22:44:07.229Z,96.86
2022-09-21T22:46:08.683Z,96.82
2022-09-21T22:48:09.790Z,96.95
2022-09-21T22:50:11.343Z,97.05
2022-09-21T22:52:12.952Z,97.09
2022-09-21T22:54:14.109Z,97.05
2022-09-21T22:56:15.392Z,97.04
2022-09-21T22:58:16.956Z,96.99
2022-09-21T23:00:18.204Z,96.92
2022-09-21T23:02:19.510Z,97.21
2022-09-21T23:04:21.240Z,97.33
2022-09-21T23:06:23.159Z,97.3
2022-09-21T23:08:24.668Z,97.36
2022-09-21T23:10:26.444Z,97.37
2022-09-21T23:14:29.907Z,97.38
2022-09-21T23:18:32.897Z,97.38
2022-09-21T23:20:34.217Z,97.39
2022-09-21T23:22:35.740Z,97.39
2022-09-21T23:24:37.306Z,97.44
2022-09-21T23:26:39.164Z,97.47
2022-09-21T23:28:41.103Z,97.46
2022-09-21T23:30:42.179Z,97.44
2022-09-21T23:32:43.740Z,97.38
2022-09-21T23:34:45.065Z,97.25
2022-09-21T23:36:46.839Z,97.28
2022-09-21T23:38:47.887Z,97.25
2022-09-21T23:40:49.799Z,97.28
2022-09-21T23:42:51.041Z,97.35
2022-09-21T23:46:54.553Z,97.47
2022-09-21T23:48:55.671Z,97.5
2022-09-21T23:50:57.228Z,97.59
2022-09-21T23:52:58.597Z,97.66
2022-09-21T23:54:59.620Z,97.75
2022-09-21T23:57:01.379Z,97.85
2022-09-21T23:59:02.651Z,97.87
